createdAt,value
2017-07-23T02:03:34.834Z,16.80
2017-07-23T02:06:19.197Z,16.50
2017-07-23T02:09:01.315Z,18.27
2017-07-23T02:14:50.549Z,16.83
2017-07-23T02:20:46.029Z,16.08
2017-07-23T17:46:46.804Z,2.67
2017-07-23T17:49:15.714Z,2.00
2017-07-23T17:51:45.418Z,2.25
2017-07-23T17:54:14.401Z,2.55
2017-07-23T17:56:43.919Z,2.05
2017-07-23T17:59:12.805Z,2.90
2017-07-23T18:01:41.692Z,2.90
2017-07-23T18:04:10.582Z,2.50
2017-07-23T18:06:39.505Z,2.55
2017-07-23T18:09:09.021Z,2.55
2017-07-23T18:11:37.914Z,2.70
2017-07-23T18:14:06.818Z,3.00
2017-07-23T18:16:35.725Z,2.50
2017-07-23T18:19:04.625Z,2.30
2017-07-23T18:21:33.527Z,2.92
2017-07-23T18:24:03.561Z,3.22
2017-07-23T18:26:33.400Z,2.65
2017-07-23T18:29:03.090Z,2.58
2017-07-23T18:31:32.750Z,2.53
2017-07-23T18:34:01.636Z,2.62
2017-07-23T18:36:30.565Z,2.12
2017-07-23T18:38:59.466Z,2.70
2017-07-23T18:41:28.362Z,2.87
2017-07-23T18:43:57.244Z,3.50
2017-07-23T18:46:26.148Z,3.35
2017-07-23T18:48:55.869Z,2.45
2017-07-23T18:51:25.525Z,2.30
2017-07-23T18:53:54.442Z,2.40
2017-07-23T18:56:23.332Z,2.70
2017-07-23T18:58:52.235Z,2.75
2017-07-23T19:01:21.138Z,2.95
2017-07-23T19:03:50.036Z,2.80
2017-07-23T19:06:18.925Z,2.70
2017-07-23T19:08:49.031Z,3.00
2017-07-23T19:11:17.943Z,2.83
2017-07-23T19:13:47.602Z,3.30
2017-07-23T19:16:16.503Z,3.00
2017-07-23T19:18:45.410Z,3.28
2017-07-23T19:21:14.291Z,3.22
2017-07-23T19:23:45.289Z,3.17
2017-07-23T19:26:15.005Z,4.43
2017-07-23T19:28:43.951Z,2.92
2017-07-23T19:31:13.906Z,3.25
2017-07-23T19:33:43.557Z,3.25
2017-07-23T19:36:12.492Z,3.87
2017-07-23T19:38:42.157Z,2.80
2017-07-23T19:41:11.549Z,3.60
2017-07-23T19:43:42.323Z,4.37
2017-07-23T19:46:12.144Z,4.30
2017-07-23T19:48:41.078Z,3.67
2017-07-23T19:51:09.969Z,3.80
2017-07-23T19:53:38.877Z,3.70
2017-07-23T19:56:08.390Z,3.42
2017-07-23T19:58:37.273Z,4.28
2017-07-23T20:01:06.170Z,4.80
2017-07-23T20:03:35.124Z,3.60
2017-07-23T20:06:04.788Z,3.70
2017-07-23T20:08:33.672Z,3.20
2017-07-23T20:11:02.557Z,2.80
2017-07-23T20:13:31.476Z,3.65
2017-07-23T20:16:00.367Z,3.70
2017-07-23T20:18:29.249Z,3.67
2017-07-23T20:20:58.385Z,3.05
2017-07-23T20:23:27.285Z,3.75
2017-07-23T20:25:56.937Z,4.30
2017-07-23T20:28:25.831Z,3.67
2017-07-23T20:30:54.752Z,3.92
2017-07-23T20:33:23.632Z,3.20
2017-07-23T20:35:52.530Z,3.35
2017-07-23T20:38:21.479Z,2.53
2017-07-23T20:40:50.376Z,2.90
2017-07-23T20:43:19.302Z,2.28
2017-07-23T20:45:48.172Z,2.55
2017-07-23T20:48:17.040Z,2.30
2017-07-23T20:50:46.852Z,3.12
2017-07-23T20:53:15.740Z,1.60
2017-07-23T20:55:44.604Z,2.08
2017-07-23T20:58:13.515Z,2.50
2017-07-23T21:00:42.415Z,2.12
2017-07-23T21:03:11.311Z,2.47
2017-07-23T21:05:40.203Z,2.30
2017-07-23T21:08:09.076Z,2.40
2017-07-23T21:10:37.982Z,2.20
2017-07-23T21:13:06.892Z,2.12
2017-07-23T21:15:35.799Z,1.95
2017-07-23T21:18:04.711Z,2.78
2017-07-23T21:20:34.066Z,2.00
2017-07-23T21:23:02.959Z,2.40
2017-07-23T21:25:31.849Z,2.03
2017-07-23T21:28:00.788Z,1.80
2017-07-23T21:30:30.627Z,2.15
2017-07-23T21:33:00.260Z,2.12
2017-07-23T21:35:29.175Z,2.08
2017-07-23T21:37:58.058Z,1.77
2017-07-23T21:40:28.089Z,1.52
2017-07-23T21:42:56.958Z,1.50
2017-07-23T21:45:26.455Z,1.48
2017-07-23T21:47:57.561Z,1.65
2017-07-23T21:50:27.324Z,1.70
2017-07-23T21:52:57.442Z,1.83
2017-07-23T21:55:31.157Z,1.85
2017-07-23T21:58:02.637Z,1.52
2017-07-23T22:00:32.542Z,1.70
2017-07-23T22:03:01.682Z,1.17
2017-07-23T22:05:32.386Z,1.70
2017-07-23T22:08:01.315Z,1.98
2017-07-23T22:10:30.244Z,2.25
2017-07-23T22:12:59.145Z,2.00
2017-07-23T22:15:28.045Z,1.90
2017-07-23T22:17:56.939Z,2.00
2017-07-23T22:20:26.780Z,2.40
2017-07-23T22:22:55.644Z,1.67
2017-07-23T22:25:24.538Z,1.90
2017-07-23T22:27:54.212Z,1.77
2017-07-23T22:30:23.105Z,2.00
2017-07-23T22:32:51.999Z,2.17
2017-07-23T22:35:20.940Z,1.90
2017-07-23T22:37:50.565Z,1.85
2017-07-23T22:40:20.220Z,2.05
2017-07-23T22:42:49.121Z,2.37
2017-07-23T22:45:18.008Z,2.03
2017-07-23T22:47:46.913Z,2.10
2017-07-23T22:50:15.810Z,1.80
2017-07-23T22:52:44.706Z,1.80
2017-07-23T22:55:13.592Z,1.65
2017-07-23T22:57:42.478Z,1.73
2017-07-23T23:00:11.382Z,2.25
2017-07-23T23:02:40.284Z,1.70
2017-07-23T23:05:09.159Z,1.95
2017-07-23T23:07:38.041Z,1.73
2017-07-23T23:10:06.947Z,2.25
2017-07-23T23:12:35.841Z,1.70
2017-07-23T23:15:04.731Z,2.60
2017-07-23T23:17:33.620Z,2.10
2017-07-23T23:20:02.535Z,1.80
2017-07-23T23:22:31.439Z,2.20
2017-07-23T23:25:01.059Z,2.67
2017-07-23T23:27:29.947Z,2.50
2017-07-23T23:29:59.627Z,1.45
2017-07-23T23:32:28.512Z,1.35
2017-07-23T23:34:57.410Z,1.65
2017-07-23T23:37:26.271Z,1.70
2017-07-23T23:39:55.162Z,1.58
2017-07-23T23:42:24.077Z,2.42
2017-07-23T23:44:52.982Z,1.90
2017-07-23T23:47:21.874Z,2.28
2017-07-23T23:49:50.759Z,1.75
2017-07-23T23:52:19.646Z,1.90
2017-07-23T23:54:48.547Z,1.30
2017-07-23T23:57:17.418Z,1.65
2017-07-23T23:59:46.302Z,1.40
